Terminal Aerodrome Forecast
Issued by NWS

Home | Current Version | Previous Version | Text Only | Print | Product List | Glossary On
Versions: 1 2 3 4 5 6 7 8 9 10 11 12 13 14
000
FTAK31 PAJN 240500
TAFAPG
TAF
PAPG 240528Z 2406/2506 00000KT P6SM BCFG SCT050 OVC060
      TEMPO 2412/2416 2SM BR SCT002
     FM241700 VRB03KT P6SM -SHRA BKN050
     FM250000 VRB03KT P6SM BKN050
      AMD LTD TO CLD VIS AND WIND 2406/2415=

USA.gov is the U.S. government's official web portal to all federal, state and local government web resources and services.